Time;durP1;ratioP1;P1;durP2;ratioP2;P2;SDS_P1;SDS_P2;PMS_P1;PMS_P2;Temp;Humidity;BMP_temperature;BMP_pressure;BME280_temperature;BME280_humidity;BME280_pressure;Samples;Min_cycle;Max_cycle;Signal;HPM_P1;HPM_P2
2022/12/11 00:02:04;;;;;;;72.32;23.60;;;-1.00;99.90;;;;;;6192354;23;20083;-85
2022/12/11 00:04:30;;;;;;;74.68;24.17;;;-1.00;99.90;;;;;;6214141;23;20466;-84
2022/12/11 00:06:55;;;;;;;80.75;25.98;;;-0.60;99.90;;;;;;6190125;23;20459;-83
2022/12/11 00:09:21;;;;;;;82.78;25.60;;;-0.70;99.90;;;;;;6214223;23;20118;-84
2022/12/11 00:11:48;;;;;;;85.45;26.92;;;-1.00;99.90;;;;;;6191641;23;20515;-85
2022/12/11 00:14:14;;;;;;;78.82;25.52;;;-0.80;99.90;;;;;;6191381;23;20024;-83
2022/12/11 00:16:40;;;;;;;74.32;25.38;;;-0.90;99.90;;;;;;6239968;23;20020;-83
2022/12/11 00:19:06;;;;;;;67.53;23.25;;;-0.50;99.90;;;;;;6189349;23;20097;-83
2022/12/11 00:21:32;;;;;;;64.35;22.83;;;-0.90;99.90;;;;;;6189829;23;20371;-85
2022/12/11 00:23:58;;;;;;;72.53;23.45;;;-0.80;99.90;;;;;;6189740;23;20048;-82
2022/12/11 00:26:25;;;;;;;66.85;22.63;;;-0.70;99.90;;;;;;6165585;23;20023;-85
2022/12/11 00:28:54;;;;;;;69.32;22.58;;;-0.50;99.90;;;;;;6192018;23;20119;-83
2022/12/11 00:31:20;;;;;;;71.35;22.52;;;-0.60;99.90;;;;;;6191942;23;20131;-84
2022/12/11 00:33:50;;;;;;;67.53;22.02;;;-0.60;99.90;;;;;;6217107;23;20008;-83
2022/12/11 00:36:27;;;;;;;65.07;22.17;;;-0.90;99.90;;;;;;6192374;23;20047;-83
2022/12/11 00:38:53;;;;;;;68.97;21.70;;;-0.60;99.90;;;;;;6212063;23;20020;-82
2022/12/11 00:41:20;;;;;;;72.50;20.92;;;-0.50;99.90;;;;;;6187965;23;20078;-84
2022/12/11 00:43:46;;;;;;;72.68;21.67;;;-0.80;99.90;;;;;;6244507;23;20055;-84
2022/12/11 00:46:12;;;;;;;69.47;21.75;;;-0.50;99.90;;;;;;6186016;23;20103;-84
2022/12/11 00:48:38;;;;;;;81.63;23.00;;;-0.80;99.90;;;;;;6209710;23;20020;-83
2022/12/11 00:51:07;;;;;;;65.13;21.75;;;-0.30;99.90;;;;;;6184338;23;20048;-83
2022/12/11 00:53:33;;;;;;;69.57;22.02;;;-0.40;99.90;;;;;;6183996;23;20087;-84
2022/12/11 00:55:59;;;;;;;62.13;21.63;;;-0.50;99.90;;;;;;6185170;23;20114;-82
2022/12/11 00:58:24;;;;;;;70.90;22.45;;;-0.70;99.90;;;;;;6209318;23;20751;-84
2022/12/11 01:00:50;;;;;;;67.53;22.80;;;-0.70;99.90;;;;;;6186423;23;20436;-82
2022/12/11 01:03:16;;;;;;;65.90;21.73;;;-0.70;99.90;;;;;;6213983;23;20309;-86
2022/12/11 01:06:01;;;;;;;65.13;22.02;;;-0.70;99.90;;;;;;6213125;23;20015;-83
2022/12/11 01:08:27;;;;;;;58.28;20.65;;;-0.30;99.90;;;;;;6212156;23;20005;-86
2022/12/11 01:11:04;;;;;;;65.63;21.52;;;-0.70;99.90;;;;;;6214484;23;20436;-83
2022/12/11 01:13:29;;;;;;;58.97;20.70;;;-0.70;99.90;;;;;;6212359;23;20013;-84
2022/12/11 01:15:55;;;;;;;58.45;20.30;;;-0.60;99.90;;;;;;6186446;23;20008;-84
2022/12/11 01:18:21;;;;;;;63.17;20.50;;;-0.60;99.90;;;;;;6216533;23;20020;-82
2022/12/11 01:24:28;;;;;;;65.78;20.90;;;-0.60;99.90;;;;;;6231680;23;20047;-79
2022/12/11 01:26:53;;;;;;;58.05;20.55;;;-0.60;99.90;;;;;;6229621;23;20024;-78
2022/12/11 01:29:19;;;;;;;67.30;20.90;;;-0.40;99.90;;;;;;6193988;23;20012;-83
2022/12/11 01:31:45;;;;;;;66.32;21.10;;;-0.50;99.90;;;;;;6214721;23;20036;-83
2022/12/11 01:38:16;;;;;;;68.18;21.08;;;-0.40;99.90;;;;;;6213969;23;20016;-84
2022/12/11 01:40:47;;;;;;;64.53;21.10;;;-0.50;99.90;;;;;;6210197;23;20020;-83
2022/12/11 01:43:12;;;;;;;69.80;22.92;;;-0.50;99.90;;;;;;6185912;23;20012;-82
2022/12/11 01:45:41;;;;;;;81.90;23.30;;;-0.20;99.90;;;;;;6209917;23;20051;-83
2022/12/11 01:48:30;;;;;;;75.32;24.58;;;-0.40;99.90;;;;;;6182374;23;20020;-82
2022/12/11 01:50:59;;;;;;;88.78;24.77;;;-0.20;99.90;;;;;;6210932;23;20013;-83
2022/12/11 01:53:35;;;;;;;80.90;24.05;;;-0.20;99.90;;;;;;6211243;23;20016;-83
2022/12/11 01:56:02;;;;;;;87.82;24.10;;;-0.20;99.90;;;;;;6211490;23;20018;-83
2022/12/11 01:58:41;;;;;;;85.80;24.23;;;-0.60;99.90;;;;;;6211409;23;20023;-83
2022/12/11 02:01:09;;;;;;;80.50;24.92;;;-0.50;99.90;;;;;;6213264;23;20027;-82
2022/12/11 02:03:35;;;;;;;86.30;26.10;;;-0.10;99.90;;;;;;6213009;23;20352;-84
2022/12/11 02:09:45;;;;;;;93.32;25.70;;;-0.50;99.90;;;;;;6216543;23;20035;-80
2022/12/11 02:12:45;;;;;;;90.97;26.45;;;-0.30;99.90;;;;;;6217269;23;20100;-84
2022/12/11 02:15:14;;;;;;;96.97;25.35;;;-0.20;99.90;;;;;;6214745;23;20011;-82
2022/12/11 02:18:01;;;;;;;94.70;26.85;;;-0.40;99.90;;;;;;6210934;23;20348;-81
2022/12/11 02:20:34;;;;;;;126.70;27.90;;;-0.20;99.90;;;;;;6210298;23;20343;-84
2022/12/11 02:23:30;;;;;;;97.22;26.73;;;-0.10;99.90;;;;;;6212302;23;20351;-84
2022/12/11 02:26:26;;;;;;;109.85;27.42;;;-0.10;99.90;;;;;;6211308;23;20066;-84
2022/12/11 02:28:58;;;;;;;84.80;26.35;;;-0.50;99.90;;;;;;6186313;23;20298;-81
2022/12/11 02:31:26;;;;;;;;;;;-0.40;99.90;;;;;;6213216;23;20008;-83
2022/12/11 02:37:23;;;;;;;105.97;26.27;;;-0.40;99.90;;;;;;6213246;23;20028;-82
2022/12/11 02:39:52;;;;;;;94.50;26.45;;;-0.10;99.90;;;;;;6208252;23;20440;-82
2022/12/11 02:42:20;;;;;;;81.97;26.27;;;0.00;99.90;;;;;;6185529;23;20409;-87
2022/12/11 02:44:49;;;;;;;93.72;27.27;;;-0.10;99.90;;;;;;6183924;23;20074;-82
2022/12/11 02:47:16;;;;;;;109.88;26.75;;;-0.40;99.90;;;;;;6210941;23;20099;-84
2022/12/11 02:49:46;;;;;;;110.22;26.63;;;0.00;99.90;;;;;;6212562;23;20017;-83
2022/12/11 02:52:15;;;;;;;103.28;26.70;;;-0.30;99.90;;;;;;6189688;23;20044;-83
2022/12/11 02:54:42;;;;;;;108.65;27.20;;;-0.50;99.90;;;;;;6218037;23;20388;-86
2022/12/11 02:57:10;;;;;;;102.05;28.02;;;0.00;99.90;;;;;;6218752;23;20405;-81
2022/12/11 02:59:39;;;;;;;103.85;25.80;;;-0.30;99.90;;;;;;6203168;23;20023;-80
2022/12/11 03:02:06;;;;;;;93.60;26.40;;;-0.30;99.90;;;;;;6226047;23;20044;-84
2022/12/11 03:04:35;;;;;;;110.97;26.67;;;0.00;99.90;;;;;;6186074;23;20020;-81
2022/12/11 03:07:12;;;;;;;95.00;25.95;;;0.10;99.90;;;;;;6210859;23;20060;-83
2022/12/11 03:09:40;;;;;;;84.88;26.58;;;-0.20;99.90;;;;;;6183199;23;20013;-85
2022/12/11 03:12:08;;;;;;;97.53;26.88;;;-0.10;99.90;;;;;;6182221;23;20015;-81
2022/12/11 03:14:35;;;;;;;93.97;25.95;;;0.10;99.90;;;;;;6208263;23;20021;-84
2022/12/11 03:17:28;;;;;;;86.97;25.42;;;0.00;99.90;;;;;;6182700;23;20016;-82
2022/12/11 03:20:09;;;;;;;89.95;25.67;;;-0.10;99.90;;;;;;6184242;23;20028;-82
2022/12/11 03:23:00;;;;;;;92.45;25.13;;;-0.10;99.90;;;;;;6208046;23;20099;-82
2022/12/11 03:25:52;;;;;;;104.38;25.58;;;-0.30;99.90;;;;;;6209596;23;20396;-82
2022/12/11 03:28:54;;;;;;;103.10;26.25;;;-0.20;99.90;;;;;;6186129;23;20009;-82
2022/12/11 03:31:35;;;;;;;111.07;26.67;;;0.10;99.90;;;;;;6208174;23;20005;-84
2022/12/11 03:34:05;;;;;;;96.72;26.10;;;-0.20;99.90;;;;;;6184496;23;20020;-86
2022/12/11 03:40:16;;;;;;;97.15;24.58;;;-0.10;99.90;;;;;;6211342;23;20035;-81
2022/12/11 03:42:45;;;;;;;99.70;25.95;;;-0.10;99.90;;;;;;6208565;23;20016;-83
2022/12/11 03:45:12;;;;;;;99.68;25.52;;;0.10;99.90;;;;;;6209370;23;20040;-84
2022/12/11 03:47:39;;;;;;;123.40;26.15;;;0.10;99.90;;;;;;6193988;23;20020;-84
2022/12/11 03:50:09;;;;;;;104.93;26.63;;;0.20;99.90;;;;;;6158848;23;20096;-86
2022/12/11 03:52:38;;;;;;;95.78;24.73;;;-0.20;99.90;;;;;;6160542;23;20009;-84
2022/12/11 03:55:06;;;;;;;104.10;24.10;;;-0.20;99.90;;;;;;6185732;23;20348;-85
2022/12/11 03:57:35;;;;;;;93.78;24.88;;;0.10;99.90;;;;;;6189069;23;20380;-82
2022/12/11 04:00:06;;;;;;;109.32;25.00;;;0.00;99.90;;;;;;6190154;23;20058;-82
2022/12/11 04:02:31;;;;;;;86.30;25.30;;;0.20;99.90;;;;;;6181716;23;20027;-84
2022/12/11 04:04:57;;;;;;;85.00;24.13;;;0.10;99.90;;;;;;6156279;23;20029;-82
2022/12/11 04:07:22;;;;;;;96.22;24.05;;;-0.20;99.90;;;;;;6182913;23;20413;-85
2022/12/11 04:09:48;;;;;;;102.15;25.13;;;0.10;99.90;;;;;;6155754;23;20076;-83
2022/12/11 04:12:14;;;;;;;82.82;24.63;;;0.20;99.90;;;;;;6157496;23;20023;-83
2022/12/11 04:25:38;;;;;;;88.63;23.20;;;0.20;99.90;;;;;;6211570;23;20017;-84
2022/12/11 04:28:04;;;;;;;88.45;23.70;;;-0.10;99.90;;;;;;6187593;23;20013;-83
2022/12/11 04:30:30;;;;;;;82.55;22.90;;;-0.10;99.90;;;;;;6218719;23;20016;-83
2022/12/11 04:32:55;;;;;;;80.10;23.35;;;0.00;99.90;;;;;;6197670;23;20493;-79
2022/12/11 04:35:22;;;;;;;84.50;24.17;;;0.10;99.90;;;;;;6205851;23;20013;-78
2022/12/11 04:37:48;;;;;;;81.05;22.38;;;0.20;99.90;;;;;;6171125;23;20294;-84
2022/12/11 04:40:16;;;;;;;82.60;23.25;;;0.10;99.90;;;;;;6215330;23;20019;-81
2022/12/11 04:42:42;;;;;;;75.10;22.35;;;0.30;99.90;;;;;;6193510;23;20527;-82
2022/12/11 04:45:09;;;;;;;83.82;22.17;;;0.10;99.90;;;;;;6170439;23;20008;-83
2022/12/11 04:47:36;;;;;;;78.43;22.60;;;0.30;99.90;;;;;;6175362;23;20028;-86
2022/12/11 04:50:04;;;;;;;70.55;21.27;;;-0.10;99.90;;;;;;6210923;23;20462;-86
2022/12/11 04:52:30;;;;;;;76.00;22.70;;;0.10;99.90;;;;;;6214565;23;20020;-83
2022/12/11 04:54:55;;;;;;;81.05;23.35;;;0.30;99.90;;;;;;6186513;23;20013;-84
2022/12/11 04:57:21;;;;;;;71.53;22.08;;;0.30;99.90;;;;;;6187115;23;20012;-83
2022/12/11 04:59:48;;;;;;;78.25;22.75;;;0.00;99.90;;;;;;6214039;23;20023;-85
2022/12/11 05:02:14;;;;;;;69.80;21.15;;;0.10;99.90;;;;;;6186058;23;20048;-84
2022/12/11 05:04:52;;;;;;;81.45;23.27;;;0.30;99.90;;;;;;6212360;23;20448;-85
2022/12/11 05:07:18;;;;;;;86.90;23.73;;;0.40;99.90;;;;;;6215509;23;20118;-83
2022/12/11 05:09:43;;;;;;;76.28;21.70;;;0.30;99.90;;;;;;6187488;23;20016;-82
2022/12/11 05:12:09;;;;;;;77.63;23.10;;;0.10;99.90;;;;;;6209707;23;20009;-82
2022/12/11 05:14:35;;;;;;;82.35;23.23;;;0.10;99.90;;;;;;6185642;23;20428;-84
2022/12/11 05:17:00;;;;;;;79.65;23.10;;;0.20;99.90;;;;;;6183923;23;20077;-83
2022/12/11 05:19:26;;;;;;;78.78;22.63;;;0.10;99.90;;;;;;6188126;23;20016;-84
2022/12/11 05:25:17;;;;;;;78.28;22.45;;;0.10;99.90;;;;;;6208772;23;20028;-84
2022/12/11 05:27:43;;;;;;;81.88;24.27;;;0.40;99.90;;;;;;6209317;23;20020;-81
2022/12/11 05:30:09;;;;;;;85.50;23.30;;;0.00;99.90;;;;;;6184634;23;20095;-85
2022/12/11 05:32:35;;;;;;;82.43;23.65;;;0.10;99.90;;;;;;6186201;23;20079;-84
2022/12/11 05:35:00;;;;;;;80.32;22.95;;;0.10;99.90;;;;;;6185224;23;20016;-82
2022/12/11 05:37:26;;;;;;;77.72;23.63;;;0.20;99.90;;;;;;6185574;23;20158;-81
2022/12/11 05:39:52;;;;;;;78.10;22.58;;;0.00;99.90;;;;;;6187558;23;20016;-83
2022/12/11 05:42:17;;;;;;;79.38;23.65;;;0.10;99.90;;;;;;6186977;23;20020;-82
2022/12/11 05:44:43;;;;;;;79.22;22.83;;;0.10;99.90;;;;;;6211201;23;20078;-85
2022/12/11 05:47:09;;;;;;;80.07;23.70;;;0.10;99.90;;;;;;6210754;23;20458;-83
2022/12/11 05:49:35;;;;;;;79.25;23.58;;;0.20;99.90;;;;;;6184910;23;20016;-83
2022/12/11 05:52:01;;;;;;;77.82;23.83;;;0.30;99.90;;;;;;6210274;23;20092;-88
2022/12/11 05:54:26;;;;;;;83.18;23.50;;;0.20;99.90;;;;;;6209865;23;20047;-84
2022/12/11 05:56:52;;;;;;;86.30;24.02;;;0.00;99.90;;;;;;6211817;23;20482;-83
2022/12/11 05:59:18;;;;;;;78.88;23.88;;;0.00;99.90;;;;;;6210155;23;20081;-82
2022/12/11 06:01:44;;;;;;;83.47;23.48;;;0.10;99.90;;;;;;6212797;23;20012;-82
2022/12/11 06:04:11;;;;;;;83.22;23.58;;;0.00;99.90;;;;;;6213440;23;20013;-84
2022/12/11 06:07:16;;;;;;;76.70;23.90;;;0.30;99.90;;;;;;6214839;23;20017;-78
2022/12/11 06:09:42;;;;;;;75.90;23.08;;;0.30;99.90;;;;;;6202203;23;20017;-80
2022/12/11 06:12:07;;;;;;;75.22;23.98;;;0.20;99.90;;;;;;6201090;23;20011;-84
2022/12/11 06:14:33;;;;;;;76.25;24.05;;;0.20;99.90;;;;;;6186111;23;20008;-85
2022/12/11 06:17:00;;;;;;;79.22;22.48;;;0.10;99.90;;;;;;6186123;23;20870;-83
2022/12/11 06:19:25;;;;;;;79.07;24.00;;;0.40;99.90;;;;;;6188760;23;20308;-81
2022/12/11 06:21:51;;;;;;;87.05;24.52;;;0.40;99.90;;;;;;6186151;23;20020;-85
2022/12/11 06:24:17;;;;;;;74.90;22.33;;;0.10;99.90;;;;;;6212131;23;20016;-83
2022/12/11 06:26:43;;;;;;;79.82;22.30;;;0.30;99.90;;;;;;6212517;23;20016;-80
2022/12/11 06:29:08;;;;;;;77.60;23.45;;;0.30;99.90;;;;;;6190230;23;20008;-81
2022/12/11 06:31:34;;;;;;;80.63;23.48;;;0.20;99.90;;;;;;6209475;23;20016;-85
2022/12/11 06:34:00;;;;;;;84.35;23.40;;;0.10;99.90;;;;;;6213082;23;20732;-83
2022/12/11 06:36:41;;;;;;;85.30;23.42;;;0.10;99.90;;;;;;6212882;23;20040;-84
2022/12/11 06:39:07;;;;;;;81.68;24.63;;;0.10;99.90;;;;;;6212004;23;20023;-83
2022/12/11 06:41:32;;;;;;;71.63;21.58;;;0.00;99.90;;;;;;6194313;23;20091;-81
2022/12/11 06:43:58;;;;;;;74.88;21.90;;;0.00;99.90;;;;;;6209755;23;20020;-81
2022/12/11 06:46:24;;;;;;;76.40;23.40;;;0.30;99.90;;;;;;6201142;23;20031;-82
2022/12/11 06:48:49;;;;;;;70.95;21.58;;;0.10;99.90;;;;;;6245884;23;20027;-84
2022/12/11 06:51:21;;;;;;;75.50;23.92;;;0.10;99.90;;;;;;6220578;23;20055;-82
2022/12/11 06:53:51;;;;;;;81.40;25.05;;;0.20;99.90;;;;;;6217695;23;20280;-82
2022/12/11 06:56:19;;;;;;;85.28;24.90;;;0.30;99.90;;;;;;6189321;23;20432;-84
2022/12/11 06:58:45;;;;;;;76.07;23.20;;;0.40;99.90;;;;;;6215440;23;20882;-84
2022/12/11 07:01:17;;;;;;;84.75;24.13;;;0.10;99.90;;;;;;6216344;23;20051;-83
2022/12/11 07:03:43;;;;;;;80.50;24.48;;;0.20;99.90;;;;;;6190754;23;20016;-84
2022/12/11 07:06:09;;;;;;;83.85;23.80;;;0.10;99.90;;;;;;6215347;23;20019;-80
2022/12/11 07:08:34;;;;;;;76.47;23.95;;;0.30;99.90;;;;;;6188533;23;20020;-81
2022/12/11 07:11:08;;;;;;;63.88;22.08;;;0.50;99.90;;;;;;6212080;23;20116;-82
2022/12/11 07:13:34;;;;;;;72.18;22.80;;;0.20;99.90;;;;;;6213930;23;20012;-83
2022/12/11 07:16:03;;;;;;;80.03;23.27;;;0.10;99.90;;;;;;6187159;23;20081;-82
2022/12/11 07:18:29;;;;;;;79.00;23.25;;;0.40;99.90;;;;;;6189609;22;20043;-82
2022/12/11 07:20:58;;;;;;;82.45;24.23;;;0.40;99.90;;;;;;6213054;23;20124;-84
2022/12/11 07:23:25;;;;;;;78.70;23.25;;;0.40;99.90;;;;;;6189401;23;20024;-83
2022/12/11 07:25:51;;;;;;;84.63;23.88;;;0.40;99.90;;;;;;6215524;23;20099;-82
2022/12/11 07:28:17;;;;;;;81.30;23.08;;;0.30;99.90;;;;;;6216185;23;20043;-80
2022/12/11 07:30:42;;;;;;;76.22;22.38;;;0.50;99.90;;;;;;6217413;23;20015;-86
2022/12/11 07:33:08;;;;;;;85.75;23.15;;;0.40;99.90;;;;;;6218295;23;20062;-82
2022/12/11 07:35:34;;;;;;;75.38;22.95;;;0.10;99.90;;;;;;6193917;23;20054;-83
2022/12/11 07:38:00;;;;;;;79.05;22.52;;;0.30;99.90;;;;;;6221996;23;20440;-85
2022/12/11 07:40:26;;;;;;;75.10;22.02;;;0.40;99.90;;;;;;6229860;23;20016;-79
2022/12/11 07:42:52;;;;;;;81.57;23.33;;;0.10;99.90;;;;;;6206327;23;20012;-79
2022/12/11 07:45:17;;;;;;;76.82;22.85;;;0.50;99.90;;;;;;6198008;23;20023;-85
2022/12/11 07:47:43;;;;;;;79.05;22.50;;;0.20;99.90;;;;;;6198667;23;20024;-85
2022/12/11 07:50:09;;;;;;;71.45;21.30;;;0.50;99.90;;;;;;6186192;23;20017;-81
2022/12/11 07:52:35;;;;;;;82.15;22.67;;;0.10;99.90;;;;;;6162413;23;20016;-83
2022/12/11 07:55:01;;;;;;;71.25;20.98;;;0.60;99.90;;;;;;6189961;23;20087;-84
2022/12/11 07:57:27;;;;;;;80.13;21.70;;;0.40;99.90;;;;;;6168552;23;20012;-84
2022/12/11 07:59:52;;;;;;;75.25;23.92;;;0.20;99.90;;;;;;6166951;23;20028;-85
2022/12/11 08:02:18;;;;;;;92.55;27.63;;;0.50;99.90;;;;;;6187849;23;20013;-82
2022/12/11 08:04:44;;;;;;;77.25;24.35;;;0.40;99.90;;;;;;6164547;23;20120;-84
2022/12/11 08:07:28;;;;;;;83.78;23.65;;;0.30;99.90;;;;;;6192758;23;20052;-82
2022/12/11 08:09:54;;;;;;;85.40;25.90;;;0.50;99.90;;;;;;6162181;23;20672;-83
2022/12/11 08:12:19;;;;;;;81.88;26.00;;;0.20;99.90;;;;;;6158363;23;20089;-84
2022/12/11 08:14:45;;;;;;;90.35;25.70;;;0.30;99.90;;;;;;6184388;23;20095;-83
2022/12/11 08:17:11;;;;;;;80.65;22.55;;;0.20;99.90;;;;;;6211084;23;20021;-83
2022/12/11 08:19:36;;;;;;;79.68;24.60;;;0.50;99.90;;;;;;6160009;23;20020;-84
2022/12/11 08:22:02;;;;;;;83.95;24.92;;;0.20;99.90;;;;;;6160497;23;20119;-81
2022/12/11 08:24:28;;;;;;;74.05;25.48;;;0.40;99.90;;;;;;6158758;23;20066;-76
2022/12/11 08:26:58;;;;;;;87.90;26.42;;;0.70;99.90;;;;;;6185860;23;20416;-82
2022/12/11 08:29:24;;;;;;;79.43;25.02;;;0.60;99.90;;;;;;6161914;23;20083;-84
2022/12/11 08:31:50;;;;;;;82.65;24.65;;;0.20;99.90;;;;;;6186831;23;20118;-81
2022/12/11 08:34:15;;;;;;;77.60;23.92;;;0.60;99.90;;;;;;6191557;23;20013;-83
2022/12/11 08:36:42;;;;;;;86.97;24.17;;;0.50;99.90;;;;;;6190121;23;20013;-81
2022/12/11 08:39:08;;;;;;;71.43;22.45;;;0.50;99.90;;;;;;6161193;23;20100;-83
2022/12/11 08:41:34;;;;;;;82.93;23.38;;;0.30;99.90;;;;;;6184323;23;20052;-83
2022/12/11 08:44:00;;;;;;;80.05;23.17;;;0.50;99.90;;;;;;6158737;23;20605;-83
2022/12/11 08:46:30;;;;;;;82.50;23.38;;;0.10;99.90;;;;;;6162348;23;20013;-81
2022/12/11 08:48:57;;;;;;;102.32;28.20;;;0.50;99.90;;;;;;6213930;23;20050;-82
2022/12/11 08:51:25;;;;;;;95.20;27.33;;;0.50;99.90;;;;;;6213389;23;20014;-82
2022/12/11 08:53:54;;;;;;;81.13;26.42;;;0.60;99.90;;;;;;6216855;23;20012;-86
2022/12/11 08:56:21;;;;;;;81.15;23.73;;;0.30;99.90;;;;;;6243878;23;20016;-83
2022/12/11 08:58:47;;;;;;;88.93;26.52;;;0.40;99.90;;;;;;6218733;23;20074;-81
2022/12/11 09:01:23;;;;;;;82.53;24.70;;;0.40;99.90;;;;;;6194099;23;20012;-83
2022/12/11 09:03:51;;;;;;;97.57;27.10;;;0.40;99.90;;;;;;6248026;23;20032;-81
2022/12/11 09:06:19;;;;;;;87.15;24.42;;;0.40;99.90;;;;;;6219611;23;20008;-81
2022/12/11 09:08:46;;;;;;;74.82;23.65;;;0.30;99.90;;;;;;6230678;23;20481;-80
2022/12/11 09:11:15;;;;;;;79.45;24.90;;;0.80;99.90;;;;;;6230671;23;20058;-79
2022/12/11 09:13:41;;;;;;;87.47;23.70;;;0.40;99.90;;;;;;6196299;23;20012;-81
2022/12/11 09:16:09;;;;;;;95.18;26.20;;;0.60;99.90;;;;;;6221542;23;20012;-82
2022/12/11 09:18:37;;;;;;;92.25;25.55;;;0.40;99.90;;;;;;6196652;22;20103;-82
2022/12/11 09:21:08;;;;;;;85.97;24.77;;;0.40;99.90;;;;;;6194426;23;20499;-83
2022/12/11 09:23:34;;;;;;;89.70;24.75;;;0.40;99.90;;;;;;6194992;23;20102;-81
2022/12/11 09:26:04;;;;;;;94.65;25.83;;;0.30;99.90;;;;;;6219311;23;20008;-84
2022/12/11 09:28:31;;;;;;;95.07;24.52;;;0.40;99.90;;;;;;6194338;23;20016;-82
2022/12/11 09:30:57;;;;;;;100.10;27.48;;;0.40;99.90;;;;;;6219093;23;20059;-80
2022/12/11 09:33:22;;;;;;;99.28;27.05;;;0.60;99.90;;;;;;6246913;23;20423;-81
2022/12/11 09:36:01;;;;;;;103.38;27.80;;;0.30;99.90;;;;;;6219423;23;20015;-82
2022/12/11 09:38:27;;;;;;;90.22;25.67;;;0.40;99.90;;;;;;6218526;23;20497;-81
2022/12/11 09:40:53;;;;;;;88.53;25.30;;;0.30;99.90;;;;;;6217931;23;20083;-82
2022/12/11 09:43:28;;;;;;;87.43;25.70;;;0.30;99.90;;;;;;6216671;23;20034;-81
2022/12/11 09:45:55;;;;;;;87.93;26.50;;;0.70;99.90;;;;;;6218907;23;20013;-83
2022/12/11 09:48:24;;;;;;;82.57;25.60;;;0.30;99.90;;;;;;6242887;23;20008;-83
2022/12/11 09:50:53;;;;;;;90.80;26.05;;;0.40;99.90;;;;;;6218686;23;20004;-83
2022/12/11 09:53:31;;;;;;;93.13;25.63;;;0.40;99.90;;;;;;6219109;23;20091;-84
2022/12/11 09:56:00;;;;;;;92.25;26.23;;;0.60;99.90;;;;;;6217978;23;20428;-81
2022/12/11 09:58:53;;;;;;;101.63;25.73;;;0.70;99.90;;;;;;6245159;23;20012;-82
2022/12/11 10:01:40;;;;;;;82.32;25.00;;;0.60;99.90;;;;;;6244469;23;20008;-82
2022/12/11 10:04:27;;;;;;;92.40;26.17;;;0.50;99.90;;;;;;6217242;23;20012;-84
2022/12/11 10:07:02;;;;;;;99.43;27.83;;;0.60;99.90;;;;;;6192191;23;20134;-83
2022/12/11 10:09:50;;;;;;;88.28;27.77;;;0.60;99.90;;;;;;6215883;23;20015;-83
2022/12/11 10:12:25;;;;;;;78.88;26.40;;;0.80;99.90;;;;;;6217800;23;20015;-83
2022/12/11 10:15:20;;;;;;;88.18;26.98;;;0.70;99.90;;;;;;6217850;23;20012;-83
2022/12/11 10:17:46;;;;;;;78.23;25.50;;;0.60;99.90;;;;;;6198983;23;20387;-85
2022/12/11 10:20:21;;;;;;;84.03;25.63;;;0.80;99.90;;;;;;6217703;23;20438;-82
2022/12/11 10:22:49;;;;;;;79.88;25.30;;;0.90;99.90;;;;;;6217864;23;20127;-84
2022/12/11 10:25:52;;;;;;;84.80;25.98;;;0.60;99.90;;;;;;6193374;23;20055;-83
2022/12/11 10:28:19;;;;;;;91.00;27.40;;;0.60;99.90;;;;;;6218997;23;20034;-84
2022/12/11 10:31:05;;;;;;;80.88;24.90;;;0.70;99.90;;;;;;6194525;23;20069;-81
2022/12/11 10:34:10;;;;;;;82.25;24.80;;;0.90;99.90;;;;;;6198016;23;20023;-82
2022/12/11 10:40:19;;;;;;;90.03;27.90;;;0.70;99.90;;;;;;6261059;23;20038;-80
2022/12/11 10:42:54;;;;;;;83.68;27.20;;;1.10;99.90;;;;;;6224435;23;20052;-84
2022/12/11 10:45:23;;;;;;;;;;;0.90;99.90;;;;;;6194625;23;20087;-84
2022/12/11 10:48:00;;;;;;;83.00;25.42;;;0.80;99.90;;;;;;6176236;23;19998;-83
2022/12/11 10:50:25;;;;;;;87.13;25.75;;;1.20;99.90;;;;;;6189196;23;20017;-85
2022/12/11 10:52:52;;;;;;;81.25;26.13;;;1.20;99.90;;;;;;6163586;23;20100;-83
2022/12/11 10:55:37;;;;;;;77.15;24.20;;;0.90;99.90;;;;;;6214493;23;20017;-83
2022/12/11 10:58:05;;;;;;;80.10;25.20;;;0.90;99.90;;;;;;6187660;23;20023;-81
2022/12/11 11:00:40;;;;;;;95.93;25.77;;;0.90;99.90;;;;;;6162707;23;20021;-82
2022/12/11 11:03:26;;;;;;;82.10;25.88;;;0.90;99.90;;;;;;6187516;23;20020;-83
2022/12/11 11:06:18;;;;;;;76.72;25.05;;;0.80;99.90;;;;;;6162591;23;20139;-82
2022/12/11 11:08:47;;;;;;;82.70;25.15;;;1.10;99.90;;;;;;6161961;23;20012;-83
2022/12/11 11:11:31;;;;;;;84.05;26.67;;;0.90;99.90;;;;;;6186793;23;20122;-84
2022/12/11 11:14:04;;;;;;;85.32;25.58;;;1.00;99.90;;;;;;6213482;23;20025;-84
2022/12/11 11:16:30;;;;;;;86.85;25.83;;;1.10;99.90;;;;;;6161178;23;20449;-85
2022/12/11 11:18:57;;;;;;;77.68;24.77;;;0.90;99.90;;;;;;6187631;23;20028;-81
2022/12/11 11:21:25;;;;;;;78.50;25.80;;;1.20;99.90;;;;;;6162687;23;20016;-82
2022/12/11 11:23:53;;;;;;;79.30;26.77;;;1.00;99.90;;;;;;6161747;23;20059;-81
2022/12/11 11:26:20;;;;;;;94.72;27.33;;;1.30;99.90;;;;;;6161785;23;20020;-84
2022/12/11 11:28:53;;;;;;;80.93;27.08;;;1.30;99.90;;;;;;6162852;23;20088;-81
2022/12/11 11:31:21;;;;;;;72.53;25.55;;;1.20;99.90;;;;;;6187241;23;20424;-80
2022/12/11 11:34:02;;;;;;;76.63;25.65;;;1.20;99.90;;;;;;6186385;23;20008;-83
2022/12/11 11:36:30;;;;;;;73.00;25.23;;;1.40;99.90;;;;;;6187118;23;20255;-83
2022/12/11 11:39:24;;;;;;;81.47;26.85;;;1.10;99.90;;;;;;6185697;23;20016;-82
2022/12/11 11:42:06;;;;;;;77.88;24.50;;;1.00;99.90;;;;;;6187629;23;20016;-81
2022/12/11 11:45:15;;;;;;;85.78;27.10;;;1.30;99.90;;;;;;6213331;23;20473;-84
2022/12/11 11:47:52;;;;;;;75.22;26.02;;;1.30;99.90;;;;;;6173487;23;20424;-82
2022/12/11 11:50:26;;;;;;;72.25;26.17;;;1.30;99.90;;;;;;6211691;23;20012;-83
2022/12/11 11:53:03;;;;;;;75.78;26.63;;;1.40;99.90;;;;;;6212446;23;20012;-83
2022/12/11 11:55:47;;;;;;;75.45;26.80;;;1.10;99.90;;;;;;6210554;23;20345;-83
2022/12/11 11:58:21;;;;;;;77.97;26.58;;;1.20;99.90;;;;;;6185877;23;20051;-84
2022/12/11 12:00:47;;;;;;;78.10;27.58;;;1.40;99.90;;;;;;6211797;23;20331;-84
2022/12/11 12:03:17;;;;;;;72.30;26.35;;;1.40;99.90;;;;;;6212554;23;20088;-82
2022/12/11 12:10:14;;;;;;;80.07;26.95;;;1.30;99.90;;;;;;6215484;23;20086;-82
2022/12/11 12:12:43;;;;;;;79.43;28.08;;;1.20;99.90;;;;;;6201094;23;20043;-80
2022/12/11 12:15:19;;;;;;;75.55;27.13;;;1.30;99.90;;;;;;6197545;23;20088;-84
2022/12/11 12:17:51;;;;;;;79.13;28.25;;;1.10;99.90;;;;;;6187205;23;20017;-85
2022/12/11 12:20:29;;;;;;;82.68;29.65;;;1.30;99.90;;;;;;6212174;23;20012;-84
2022/12/11 12:23:51;;;;;;;80.40;27.17;;;1.30;99.90;;;;;;6187819;23;20019;-81
2022/12/11 12:26:35;;;;;;;79.72;28.13;;;1.20;99.90;;;;;;6187333;23;20415;-82
2022/12/11 12:29:50;;;;;;;87.68;30.15;;;1.00;99.90;;;;;;6187894;23;20056;-84
2022/12/11 12:32:42;;;;;;;88.22;28.77;;;1.30;99.90;;;;;;6071247;23;20428;-81
2022/12/11 12:35:34;;;;;;;82.13;30.17;;;1.30;99.90;;;;;;6071122;23;20025;-81
2022/12/11 12:38:22;;;;;;;81.88;27.45;;;1.40;99.90;;;;;;5955648;24;20024;-86
2022/12/11 12:41:02;;;;;;;77.03;26.45;;;1.30;99.90;;;;;;5957264;24;20876;-82
2022/12/11 12:43:39;;;;;;;80.45;27.67;;;1.40;99.90;;;;;;5980993;24;20060;-83
2022/12/11 12:46:18;;;;;;;76.68;26.27;;;1.10;99.90;;;;;;5981133;24;20103;-85
2022/12/11 12:48:44;;;;;;;82.43;26.73;;;1.10;99.90;;;;;;5979906;23;20024;-82
2022/12/11 12:57:41;;;;;;;73.22;25.65;;;1.50;99.90;;;;;;5982628;24;20020;-83
2022/12/11 13:00:08;;;;;;;82.63;27.55;;;1.30;99.90;;;;;;5981728;24;20407;-83
2022/12/11 13:02:37;;;;;;;76.53;25.92;;;1.50;99.90;;;;;;5958175;23;20030;-85
2022/12/11 13:05:20;;;;;;;74.78;26.65;;;1.40;99.90;;;;;;6040744;23;20835;-85
2022/12/11 13:07:58;;;;;;;76.68;26.98;;;1.30;99.90;;;;;;6063375;23;20062;-85
2022/12/11 13:10:33;;;;;;;80.95;28.25;;;1.50;99.90;;;;;;6016451;23;20424;-84
2022/12/11 13:13:00;;;;;;;76.63;26.83;;;1.30;99.90;;;;;;6064431;23;20419;-84
2022/12/11 13:15:42;;;;;;;78.38;27.15;;;1.40;99.90;;;;;;6142967;23;20012;-84
2022/12/11 13:18:32;;;;;;;71.75;26.80;;;1.30;99.90;;;;;;6163467;23;20401;-84
2022/12/11 13:21:00;;;;;;;77.60;27.15;;;1.40;99.90;;;;;;6215078;23;20139;-83
2022/12/11 13:23:33;;;;;;;76.10;27.25;;;1.30;99.90;;;;;;6186945;23;20047;-82
2022/12/11 13:26:02;;;;;;;78.82;27.52;;;1.40;99.90;;;;;;6186332;23;20013;-84
2022/12/11 13:28:30;;;;;;;75.53;26.67;;;1.20;99.90;;;;;;6187507;23;20309;-83
2022/12/11 13:31:04;;;;;;;76.35;25.70;;;1.20;99.90;;;;;;6187383;23;20020;-84
2022/12/11 13:33:31;;;;;;;80.60;27.80;;;1.20;99.90;;;;;;6186755;23;20166;-83
2022/12/11 13:36:08;;;;;;;77.78;26.42;;;1.00;99.90;;;;;;6161785;23;20039;-83
2022/12/11 13:38:36;;;;;;;75.78;26.23;;;1.30;99.90;;;;;;6187430;23;20095;-84
2022/12/11 13:41:08;;;;;;;71.72;26.25;;;1.20;99.90;;;;;;6164247;23;20024;-84